Time;durP1;ratioP1;P1;durP2;ratioP2;P2;SDS_P1;SDS_P2;PMS_P1;PMS_P2;Temp;Humidity;BMP_temperature;BMP_pressure;BME280_temperature;BME280_humidity;BME280_pressure;Samples;Min_cycle;Max_cycle;Signal;HPM_P1;HPM_P2
2022/03/05 00:01:41;;;;;;;9.30;3.97;;;;;;;;;;5028418;28;20371;-71
2022/03/05 00:04:07;;;;;;;10.03;3.77;;;;;;;;;;5031417;28;20138;-69
2022/03/05 00:06:32;;;;;;;7.07;2.93;;;;;;;;;;5030943;28;20033;-69
2022/03/05 00:08:58;;;;;;;9.60;4.00;;;;;;;;;;5034695;28;20021;-69
2022/03/05 00:11:23;;;;;;;8.43;3.43;;;;;;;;;;5035518;28;20024;-69
2022/03/05 00:13:48;;;;;;;6.87;3.43;;;;;;;;;;5030003;28;20016;-69
2022/03/05 00:16:14;;;;;;;8.97;3.20;;;;;;;;;;5038254;28;20301;-69
2022/03/05 00:18:39;;;;;;;8.70;4.07;;;;;;;;;;5031123;28;20025;-69
2022/03/05 00:21:04;;;;;;;9.90;4.27;;;;;;;;;;5032346;28;20067;-69
2022/03/05 00:23:29;;;;;;;10.03;3.80;;;;;;;;;;5035527;28;20483;-69
2022/03/05 00:25:55;;;;;;;11.47;3.83;;;;;;;;;;5038691;28;20025;-69
2022/03/05 00:28:20;;;;;;;8.43;3.87;;;;;;;;;;5033445;28;20499;-69
2022/03/05 00:30:45;;;;;;;11.73;4.00;;;;;;;;;;5039951;28;20033;-69
2022/03/05 00:33:11;;;;;;;11.07;3.97;;;;;;;;;;5036204;28;20218;-69
2022/03/05 00:35:36;;;;;;;8.73;4.13;;;;;;;;;;5037123;28;20108;-69
2022/03/05 00:38:01;;;;;;;7.20;3.30;;;;;;;;;;5033550;28;20063;-69
2022/03/05 00:40:27;;;;;;;12.33;4.53;;;;;;;;;;5035590;28;20037;-69
2022/03/05 00:42:52;;;;;;;8.97;3.83;;;;;;;;;;5037613;28;20539;-69
2022/03/05 00:45:17;;;;;;;6.90;3.30;;;;;;;;;;5033944;28;20433;-69
2022/03/05 00:47:43;;;;;;;9.80;4.07;;;;;;;;;;5040004;28;20279;-69
2022/03/05 00:50:09;;;;;;;12.67;4.37;;;;;;;;;;5035229;28;20301;-69
2022/03/05 00:52:34;;;;;;;12.97;4.00;;;;;;;;;;5039277;28;20183;-69
2022/03/05 00:55:00;;;;;;;11.50;3.83;;;;;;;;;;5038718;28;20784;-69
2022/03/05 00:57:25;;;;;;;9.80;4.33;;;;;;;;;;5039158;28;20020;-69
2022/03/05 00:59:51;;;;;;;10.43;3.53;;;;;;;;;;5036627;28;20030;-69
2022/03/05 01:02:16;;;;;;;13.47;3.63;;;;;;;;;;5038622;28;20182;-69
2022/03/05 01:04:41;;;;;;;13.33;4.57;;;;;;;;;;5036446;28;20017;-69
2022/03/05 01:07:06;;;;;;;8.57;3.83;;;;;;;;;;5039135;28;20523;-69
2022/03/05 01:09:32;;;;;;;8.93;3.40;;;;;;;;;;5037662;28;20695;-68
2022/03/05 01:11:57;;;;;;;8.27;3.33;;;;;;;;;;5038749;28;20028;-68
2022/03/05 01:14:22;;;;;;;11.00;4.03;;;;;;;;;;5038685;28;20287;-68
2022/03/05 01:16:47;;;;;;;8.20;4.00;;;;;;;;;;5039216;28;20032;-69
2022/03/05 01:19:13;;;;;;;14.20;4.57;;;;;;;;;;5031714;28;20061;-69
2022/03/05 01:21:39;;;;;;;9.07;3.93;;;;;;;;;;5036977;28;20021;-69
2022/03/05 01:24:05;;;;;;;13.10;4.03;;;;;;;;;;5023767;28;20306;-69
2022/03/05 01:26:30;;;;;;;8.37;3.43;;;;;;;;;;5038994;28;20037;-69
2022/03/05 01:28:56;;;;;;;7.70;3.30;;;;;;;;;;5030368;28;20033;-69
2022/03/05 01:31:21;;;;;;;8.37;3.70;;;;;;;;;;5035938;28;20206;-69
2022/03/05 01:33:47;;;;;;;7.33;3.43;;;;;;;;;;5033279;28;20033;-69
2022/03/05 01:36:12;;;;;;;13.43;4.10;;;;;;;;;;5037288;28;20086;-70
2022/03/05 01:38:37;;;;;;;11.63;4.47;;;;;;;;;;5037636;28;20028;-70
2022/03/05 01:41:02;;;;;;;11.70;4.80;;;;;;;;;;5038376;28;20107;-70
2022/03/05 01:43:28;;;;;;;9.23;3.93;;;;;;;;;;5037596;28;20036;-71
2022/03/05 01:45:53;;;;;;;12.90;3.80;;;;;;;;;;5037885;28;20530;-71
2022/03/05 01:48:18;;;;;;;8.30;3.90;;;;;;;;;;5033029;28;20045;-69
2022/03/05 01:50:43;;;;;;;10.57;4.27;;;;;;;;;;5037278;28;20385;-71
2022/03/05 01:53:09;;;;;;;8.37;3.70;;;;;;;;;;5037885;28;20112;-69
2022/03/05 01:55:34;;;;;;;9.63;4.17;;;;;;;;;;5037656;28;20021;-71
2022/03/05 01:57:59;;;;;;;9.87;3.70;;;;;;;;;;5037216;28;20437;-72
2022/03/05 02:00:24;;;;;;;12.97;4.10;;;;;;;;;;5037765;28;20347;-69
2022/03/05 02:02:50;;;;;;;9.13;4.20;;;;;;;;;;5037692;28;20440;-69
2022/03/05 02:05:15;;;;;;;10.10;4.07;;;;;;;;;;5033272;28;20356;-69
2022/03/05 02:07:41;;;;;;;8.67;4.33;;;;;;;;;;5032113;28;20493;-69
2022/03/05 02:10:08;;;;;;;14.47;4.57;;;;;;;;;;5027421;28;20021;-69
2022/03/05 02:12:34;;;;;;;13.03;4.13;;;;;;;;;;5038358;28;20029;-69
2022/03/05 02:14:59;;;;;;;11.93;4.70;;;;;;;;;;5037899;28;20384;-69
2022/03/05 02:17:25;;;;;;;10.60;3.90;;;;;;;;;;5037826;28;20108;-69
2022/03/05 02:19:50;;;;;;;10.07;4.53;;;;;;;;;;5028788;28;20028;-69
2022/03/05 02:22:16;;;;;;;11.27;4.47;;;;;;;;;;5033445;28;20053;-69
2022/03/05 02:24:41;;;;;;;13.67;4.67;;;;;;;;;;5032504;28;20037;-69
2022/03/05 02:27:06;;;;;;;11.87;4.40;;;;;;;;;;5037977;28;20095;-69
2022/03/05 02:29:32;;;;;;;10.70;4.63;;;;;;;;;;5037475;28;20304;-69
2022/03/05 02:31:58;;;;;;;8.13;3.50;;;;;;;;;;5038017;28;20422;-69
2022/03/05 02:34:24;;;;;;;10.13;4.20;;;;;;;;;;5032445;28;20455;-69
2022/03/05 02:36:50;;;;;;;8.17;3.57;;;;;;;;;;5037833;28;20379;-69
2022/03/05 02:39:15;;;;;;;9.83;3.63;;;;;;;;;;5037409;28;20301;-69
2022/03/05 02:41:40;;;;;;;10.50;4.00;;;;;;;;;;5035897;28;20032;-69
2022/03/05 02:44:05;;;;;;;9.53;3.73;;;;;;;;;;5033354;28;20029;-69
2022/03/05 02:46:33;;;;;;;9.13;3.80;;;;;;;;;;5036811;28;20082;-69
2022/03/05 02:48:58;;;;;;;9.77;4.00;;;;;;;;;;5030914;28;20648;-69
2022/03/05 02:51:24;;;;;;;10.43;3.97;;;;;;;;;;5038513;28;20486;-69
2022/03/05 02:53:49;;;;;;;11.90;3.70;;;;;;;;;;5033787;28;20317;-69
2022/03/05 02:56:14;;;;;;;14.67;4.03;;;;;;;;;;5039817;28;20292;-69
2022/03/05 02:58:39;;;;;;;7.67;3.10;;;;;;;;;;5040934;28;20078;-69
2022/03/05 03:01:05;;;;;;;12.10;4.17;;;;;;;;;;5040328;28;20075;-69
2022/03/05 03:03:30;;;;;;;15.10;4.23;;;;;;;;;;5040703;28;20040;-69
2022/03/05 03:05:55;;;;;;;7.57;3.33;;;;;;;;;;5040916;28;20033;-69
2022/03/05 03:08:20;;;;;;;14.57;4.40;;;;;;;;;;5040707;28;20069;-69
2022/03/05 03:10:46;;;;;;;8.23;3.07;;;;;;;;;;5041245;28;20371;-69
2022/03/05 03:13:11;;;;;;;9.13;3.50;;;;;;;;;;5038021;28;20037;-71
2022/03/05 03:15:36;;;;;;;10.03;4.37;;;;;;;;;;5038366;28;20124;-69
2022/03/05 03:18:02;;;;;;;8.60;3.70;;;;;;;;;;5040236;28;20166;-69
2022/03/05 03:20:27;;;;;;;10.90;4.23;;;;;;;;;;5030076;28;20581;-69
2022/03/05 03:22:52;;;;;;;12.93;4.20;;;;;;;;;;5041034;28;20052;-69
2022/03/05 03:25:18;;;;;;;10.50;3.70;;;;;;;;;;5040418;28;20082;-69
2022/03/05 03:27:43;;;;;;;14.43;4.57;;;;;;;;;;5039644;28;20032;-69
2022/03/05 03:30:10;;;;;;;8.13;3.43;;;;;;;;;;5034562;28;20269;-69
2022/03/05 03:32:36;;;;;;;10.97;4.37;;;;;;;;;;5036533;28;20024;-69
2022/03/05 03:35:02;;;;;;;9.80;4.00;;;;;;;;;;5033994;28;20283;-69
2022/03/05 03:37:29;;;;;;;9.67;3.93;;;;;;;;;;5034868;28;20021;-69
2022/03/05 03:39:58;;;;;;;8.73;3.87;;;;;;;;;;5033420;28;20013;-69
2022/03/05 03:42:24;;;;;;;11.40;3.80;;;;;;;;;;5035226;28;20736;-69
2022/03/05 03:44:49;;;;;;;8.17;4.00;;;;;;;;;;5033110;28;20663;-71
2022/03/05 03:47:15;;;;;;;9.60;3.70;;;;;;;;;;5033487;28;20275;-71
2022/03/05 03:49:40;;;;;;;9.77;4.03;;;;;;;;;;5034009;28;20675;-71
2022/03/05 03:52:05;;;;;;;6.70;3.40;;;;;;;;;;5039338;28;20100;-71
2022/03/05 03:54:31;;;;;;;11.13;4.87;;;;;;;;;;5038286;28;20153;-71
2022/03/05 03:56:56;;;;;;;10.30;3.80;;;;;;;;;;5039989;28;20021;-71
2022/03/05 03:59:22;;;;;;;10.97;3.90;;;;;;;;;;5036578;28;20064;-69
2022/03/05 04:01:47;;;;;;;15.50;5.47;;;;;;;;;;5039317;28;20212;-69
2022/03/05 04:04:12;;;;;;;8.97;3.47;;;;;;;;;;5034220;28;20271;-69
2022/03/05 04:09:21;;;;;;;11.30;4.10;;;;;;;;;;5038021;28;20083;-69
2022/03/05 04:11:47;;;;;;;9.13;4.00;;;;;;;;;;5037348;28;20514;-69
2022/03/05 04:14:12;;;;;;;10.93;4.40;;;;;;;;;;5036392;28;20124;-69
2022/03/05 04:16:38;;;;;;;8.07;3.30;;;;;;;;;;5039317;28;20029;-69
2022/03/05 04:19:03;;;;;;;8.63;3.90;;;;;;;;;;5036750;28;20029;-69
2022/03/05 04:21:28;;;;;;;10.10;3.90;;;;;;;;;;5036474;28;20408;-69
2022/03/05 04:23:53;;;;;;;11.60;4.57;;;;;;;;;;5038943;28;20039;-69
2022/03/05 04:26:19;;;;;;;11.30;4.37;;;;;;;;;;5039049;28;20177;-69
2022/03/05 04:28:44;;;;;;;12.47;4.47;;;;;;;;;;5038911;28;20033;-69
2022/03/05 04:31:09;;;;;;;9.63;4.27;;;;;;;;;;5039783;28;20128;-69
2022/03/05 04:33:34;;;;;;;9.33;4.20;;;;;;;;;;5036235;28;20033;-69
2022/03/05 04:36:00;;;;;;;11.53;4.50;;;;;;;;;;5039430;28;20450;-69
2022/03/05 04:38:25;;;;;;;11.53;4.50;;;;;;;;;;5038217;28;20029;-69
2022/03/05 04:40:51;;;;;;;9.93;3.77;;;;;;;;;;5038675;28;20312;-69
2022/03/05 04:43:16;;;;;;;12.03;4.37;;;;;;;;;;5036302;28;20311;-69
2022/03/05 04:45:41;;;;;;;8.80;3.83;;;;;;;;;;5032690;28;20025;-69
2022/03/05 04:48:07;;;;;;;9.33;4.30;;;;;;;;;;5038652;28;20448;-69
2022/03/05 04:50:32;;;;;;;12.20;4.30;;;;;;;;;;5038509;28;20281;-69
2022/03/05 04:52:57;;;;;;;11.47;4.17;;;;;;;;;;5037927;28;20029;-69
2022/03/05 04:55:23;;;;;;;10.47;4.17;;;;;;;;;;5038652;28;20670;-69
2022/03/05 04:57:48;;;;;;;13.97;5.47;;;;;;;;;;5037913;28;20025;-69
2022/03/05 05:00:13;;;;;;;20.60;7.30;;;;;;;;;;5037182;28;20406;-69
2022/03/05 05:02:38;;;;;;;21.37;9.17;;;;;;;;;;5037864;28;20037;-69
2022/03/05 05:05:05;;;;;;;12.87;5.90;;;;;;;;;;5032601;28;20536;-69
2022/03/05 05:07:31;;;;;;;12.53;4.93;;;;;;;;;;5038325;28;20551;-69
2022/03/05 05:09:56;;;;;;;22.63;5.07;;;;;;;;;;5033850;28;20679;-69
2022/03/05 05:12:22;;;;;;;14.00;4.77;;;;;;;;;;5037821;28;20618;-69
2022/03/05 05:14:48;;;;;;;9.33;3.90;;;;;;;;;;5037408;28;20041;-69
2022/03/05 05:17:13;;;;;;;13.77;5.20;;;;;;;;;;5038459;28;20670;-69
2022/03/05 05:19:38;;;;;;;14.83;6.53;;;;;;;;;;5032039;28;20029;-69
2022/03/05 05:22:04;;;;;;;14.97;6.80;;;;;;;;;;5036488;28;20025;-69
2022/03/05 05:24:31;;;;;;;12.47;6.03;;;;;;;;;;5034511;28;20025;-69
2022/03/05 05:26:57;;;;;;;12.53;5.70;;;;;;;;;;5037608;28;20805;-69
2022/03/05 05:29:22;;;;;;;12.23;4.13;;;;;;;;;;5037642;28;20276;-69
2022/03/05 05:31:48;;;;;;;11.60;4.77;;;;;;;;;;5035976;28;20021;-69
2022/03/05 05:34:13;;;;;;;9.93;4.23;;;;;;;;;;5035190;28;20633;-69
2022/03/05 05:36:38;;;;;;;13.33;5.17;;;;;;;;;;5037752;28;20134;-69
2022/03/05 05:39:07;;;;;;;15.87;4.63;;;;;;;;;;5037016;28;20021;-69
2022/03/05 05:41:32;;;;;;;13.10;4.30;;;;;;;;;;5037227;28;20043;-69
2022/03/05 05:43:58;;;;;;;10.40;4.23;;;;;;;;;;5037100;28;20886;-69
2022/03/05 05:46:23;;;;;;;15.20;5.43;;;;;;;;;;5037425;28;20087;-69
2022/03/05 05:48:48;;;;;;;9.40;4.27;;;;;;;;;;5036914;28;20028;-69
2022/03/05 05:51:13;;;;;;;10.03;4.50;;;;;;;;;;5037550;28;20043;-69
2022/03/05 05:53:39;;;;;;;9.20;4.60;;;;;;;;;;5034205;28;20493;-69
2022/03/05 05:56:04;;;;;;;14.00;5.37;;;;;;;;;;5026724;28;20638;-69
2022/03/05 05:58:29;;;;;;;12.93;4.93;;;;;;;;;;5032729;28;20075;-69
2022/03/05 06:00:54;;;;;;;14.77;6.27;;;;;;;;;;5032505;28;20509;-69
2022/03/05 06:03:20;;;;;;;14.53;5.70;;;;;;;;;;5026305;28;20386;-69
2022/03/05 06:05:45;;;;;;;11.83;5.13;;;;;;;;;;5037765;28;20017;-69
2022/03/05 06:08:11;;;;;;;12.67;5.33;;;;;;;;;;5036156;28;20055;-69
2022/03/05 06:10:36;;;;;;;10.60;4.93;;;;;;;;;;5037799;28;20032;-69
2022/03/05 06:13:01;;;;;;;10.57;4.30;;;;;;;;;;5036982;28;20445;-69
2022/03/05 06:15:26;;;;;;;12.53;4.23;;;;;;;;;;5036748;28;20358;-69
2022/03/05 06:17:54;;;;;;;11.33;4.47;;;;;;;;;;5030995;28;20043;-69
2022/03/05 06:20:20;;;;;;;11.30;4.63;;;;;;;;;;5034189;28;20021;-69
2022/03/05 06:22:45;;;;;;;9.50;4.63;;;;;;;;;;5034886;28;20531;-69
2022/03/05 06:25:10;;;;;;;19.63;5.03;;;;;;;;;;5033883;28;20111;-69
2022/03/05 06:27:36;;;;;;;10.70;4.43;;;;;;;;;;5028251;28;20155;-69
2022/03/05 06:30:01;;;;;;;12.40;5.03;;;;;;;;;;5037056;28;20068;-69
2022/03/05 06:32:27;;;;;;;10.33;3.67;;;;;;;;;;5041810;28;20553;-69
2022/03/05 06:34:54;;;;;;;10.60;4.67;;;;;;;;;;5037104;28;20035;-69
2022/03/05 06:37:20;;;;;;;8.93;3.70;;;;;;;;;;5041575;28;20539;-69
2022/03/05 06:39:45;;;;;;;10.77;4.27;;;;;;;;;;5036174;28;20310;-69
2022/03/05 06:42:11;;;;;;;9.87;4.27;;;;;;;;;;5041006;28;20033;-69
2022/03/05 06:44:36;;;;;;;9.87;4.20;;;;;;;;;;5035513;28;20041;-69
2022/03/05 06:47:02;;;;;;;9.67;3.90;;;;;;;;;;5040975;28;20245;-69
2022/03/05 06:49:27;;;;;;;13.37;5.27;;;;;;;;;;5029090;28;20163;-69
2022/03/05 06:51:52;;;;;;;12.70;4.53;;;;;;;;;;5040060;28;20029;-69
2022/03/05 06:54:18;;;;;;;14.67;4.57;;;;;;;;;;5036885;28;20421;-69
2022/03/05 06:56:43;;;;;;;7.33;3.60;;;;;;;;;;5041040;28;20025;-69
2022/03/05 06:59:08;;;;;;;13.90;4.07;;;;;;;;;;5036010;28;20024;-69
2022/03/05 07:01:34;;;;;;;8.67;4.10;;;;;;;;;;5041052;28;20045;-69
2022/03/05 07:03:59;;;;;;;11.23;4.30;;;;;;;;;;5034632;28;20247;-69
2022/03/05 07:06:24;;;;;;;8.23;3.10;;;;;;;;;;5041293;28;20428;-69
2022/03/05 07:08:49;;;;;;;12.50;4.17;;;;;;;;;;5036366;28;20036;-69
2022/03/05 07:11:15;;;;;;;7.70;3.33;;;;;;;;;;5041000;28;20025;-69
2022/03/05 07:13:40;;;;;;;10.17;4.03;;;;;;;;;;5037109;28;20037;-69
2022/03/05 07:16:05;;;;;;;13.87;5.50;;;;;;;;;;5027749;28;20502;-69
2022/03/05 07:18:30;;;;;;;12.23;4.57;;;;;;;;;;5035603;28;20065;-69
2022/03/05 07:20:57;;;;;;;8.57;3.70;;;;;;;;;;5037858;28;20032;-69
2022/03/05 07:23:22;;;;;;;9.47;4.00;;;;;;;;;;5037991;28;20040;-69
2022/03/05 07:25:48;;;;;;;8.80;3.43;;;;;;;;;;5040791;28;20021;-69
2022/03/05 07:28:13;;;;;;;9.60;4.30;;;;;;;;;;5040146;28;20028;-69
2022/03/05 07:30:38;;;;;;;10.33;4.50;;;;;;;;;;5027981;28;20025;-69
2022/03/05 07:33:07;;;;;;;11.47;4.67;;;;;;;;;;5035873;28;20031;-69
2022/03/05 07:35:32;;;;;;;8.73;3.63;;;;;;;;;;5027990;28;20036;-69
2022/03/05 07:37:57;;;;;;;13.40;4.97;;;;;;;;;;5032461;28;20223;-69
2022/03/05 07:40:23;;;;;;;12.73;4.90;;;;;;;;;;5034854;28;20488;-69
2022/03/05 07:42:48;;;;;;;10.73;4.77;;;;;;;;;;5038422;28;20039;-69
2022/03/05 07:45:13;;;;;;;10.40;4.07;;;;;;;;;;5031697;28;20037;-69
2022/03/05 07:47:39;;;;;;;11.43;4.37;;;;;;;;;;5035783;28;20068;-69
2022/03/05 07:50:04;;;;;;;13.27;5.50;;;;;;;;;;5038273;28;20539;-69
2022/03/05 07:52:30;;;;;;;14.03;4.67;;;;;;;;;;5039255;28;20132;-69
2022/03/05 07:54:55;;;;;;;10.17;4.70;;;;;;;;;;5035312;28;20091;-69
2022/03/05 07:57:20;;;;;;;13.27;5.03;;;;;;;;;;5039152;28;20299;-69
2022/03/05 07:59:45;;;;;;;11.70;4.73;;;;;;;;;;5037988;28;20656;-69
2022/03/05 08:02:10;;;;;;;10.10;3.90;;;;;;;;;;5038022;28;20051;-69
2022/03/05 08:04:36;;;;;;;9.50;4.23;;;;;;;;;;5035011;28;20067;-69
2022/03/05 08:07:01;;;;;;;7.80;3.43;;;;;;;;;;5038567;28;20056;-69
2022/03/05 08:09:27;;;;;;;13.57;5.43;;;;;;;;;;5038727;28;20061;-69
2022/03/05 08:11:52;;;;;;;11.50;4.17;;;;;;;;;;5036473;28;20413;-69
2022/03/05 08:14:17;;;;;;;9.40;3.77;;;;;;;;;;5037132;28;20033;-69
2022/03/05 08:16:42;;;;;;;10.67;4.30;;;;;;;;;;5039797;28;20036;-69
2022/03/05 08:19:08;;;;;;;18.63;6.70;;;;;;;;;;5029394;28;20120;-69
2022/03/05 08:21:33;;;;;;;10.30;4.10;;;;;;;;;;5034757;28;20265;-69
2022/03/05 08:23:58;;;;;;;12.47;6.00;;;;;;;;;;5033174;28;20406;-69
2022/03/05 08:26:24;;;;;;;9.13;4.03;;;;;;;;;;5038524;28;20043;-69
2022/03/05 08:28:49;;;;;;;10.27;4.60;;;;;;;;;;5034136;28;20264;-69
2022/03/05 08:31:14;;;;;;;34.40;11.93;;;;;;;;;;5039463;28;20231;-69
2022/03/05 08:33:39;;;;;;;25.23;9.50;;;;;;;;;;5035510;28;20039;-69
2022/03/05 08:36:06;;;;;;;32.87;11.03;;;;;;;;;;5038632;28;20056;-69
2022/03/05 08:38:33;;;;;;;13.00;5.03;;;;;;;;;;5033892;28;20466;-69
2022/03/05 08:40:58;;;;;;;18.53;7.23;;;;;;;;;;5038647;28;20116;-69
2022/03/05 08:43:24;;;;;;;10.20;4.57;;;;;;;;;;5038575;28;20352;-69
2022/03/05 08:45:49;;;;;;;6.60;2.93;;;;;;;;;;5037179;28;20025;-69
2022/03/05 08:48:14;;;;;;;18.87;7.90;;;;;;;;;;5035513;28;20148;-69
2022/03/05 08:50:40;;;;;;;19.27;9.17;;;;;;;;;;5038376;28;20104;-69
2022/03/05 08:53:05;;;;;;;12.13;5.50;;;;;;;;;;5024751;28;20033;-69
2022/03/05 08:55:30;;;;;;;13.10;5.47;;;;;;;;;;5038050;28;20248;-70
2022/03/05 08:57:56;;;;;;;10.77;4.07;;;;;;;;;;5037999;28;20032;-70
2022/03/05 09:00:21;;;;;;;39.70;22.57;;;;;;;;;;5038062;28;20252;-70
2022/03/05 09:02:46;;;;;;;11.83;4.63;;;;;;;;;;5034175;28;20075;-70
2022/03/05 09:05:14;;;;;;;19.03;10.93;;;;;;;;;;5033392;28;20047;-70
2022/03/05 09:07:39;;;;;;;8.20;3.67;;;;;;;;;;5039137;28;20098;-70
2022/03/05 09:10:15;;;;;;;13.63;6.73;;;;;;;;;;5088519;27;20753;-71
2022/03/05 09:12:40;;;;;;;15.20;7.10;;;;;;;;;;5070188;28;20030;-70
2022/03/05 09:15:06;;;;;;;11.03;3.47;;;;;;;;;;5063446;28;20413;-71
2022/03/05 09:17:31;;;;;;;9.40;5.10;;;;;;;;;;5070572;28;20017;-71
2022/03/05 09:19:57;;;;;;;13.13;6.27;;;;;;;;;;5053569;28;20033;-71
2022/03/05 09:22:23;;;;;;;12.67;5.80;;;;;;;;;;5059612;28;20032;-71
2022/03/05 09:24:48;;;;;;;12.97;5.17;;;;;;;;;;5058470;28;20051;-71
2022/03/05 09:27:13;;;;;;;22.43;15.70;;;;;;;;;;5076157;28;20032;-71
2022/03/05 09:29:39;;;;;;;9.57;3.93;;;;;;;;;;5064680;28;20035;-71
2022/03/05 09:32:04;;;;;;;9.17;3.70;;;;;;;;;;5071785;28;20024;-71
2022/03/05 09:34:30;;;;;;;9.03;4.23;;;;;;;;;;5064021;28;20034;-70
2022/03/05 09:36:55;;;;;;;9.73;4.77;;;;;;;;;;5074223;28;20063;-70
2022/03/05 09:39:20;;;;;;;12.07;5.03;;;;;;;;;;5064967;28;20036;-70
2022/03/05 09:41:46;;;;;;;34.43;20.63;;;;;;;;;;5069590;28;20571;-70
2022/03/05 09:44:11;;;;;;;18.67;9.53;;;;;;;;;;5058719;28;20091;-71
2022/03/05 09:46:36;;;;;;;13.80;5.87;;;;;;;;;;5073061;28;20028;-70
2022/03/05 09:49:02;;;;;;;15.07;7.27;;;;;;;;;;5064341;28;20025;-70
2022/03/05 09:51:28;;;;;;;10.60;4.37;;;;;;;;;;5058675;28;20027;-70
2022/03/05 09:53:54;;;;;;;13.60;5.93;;;;;;;;;;5057381;28;20037;-71
2022/03/05 09:56:19;;;;;;;10.57;4.97;;;;;;;;;;5057151;28;20105;-71
2022/03/05 09:58:45;;;;;;;14.00;5.67;;;;;;;;;;5057119;28;20037;-71
2022/03/05 10:01:10;;;;;;;11.33;5.57;;;;;;;;;;5057183;28;20071;-71
2022/03/05 10:03:45;;;;;;;14.53;5.30;;;;;;;;;;5060538;28;20155;-71
2022/03/05 10:06:24;;;;;;;11.47;5.03;;;;;;;;;;5070548;28;20132;-71
2022/03/05 10:08:52;;;;;;;11.50;4.67;;;;;;;;;;5066575;28;20492;-71
2022/03/05 10:11:18;;;;;;;13.37;6.13;;;;;;;;;;5071114;28;20016;-71
2022/03/05 10:13:44;;;;;;;9.87;4.57;;;;;;;;;;5068644;28;20032;-71
2022/03/05 10:16:22;;;;;;;10.17;4.47;;;;;;;;;;5067313;28;20035;-71
2022/03/05 10:18:47;;;;;;;11.10;4.60;;;;;;;;;;5058790;28;20500;-70
2022/03/05 10:21:12;;;;;;;18.33;6.87;;;;;;;;;;5052755;28;20037;-71
2022/03/05 10:23:42;;;;;;;9.43;3.67;;;;;;;;;;5043603;28;20028;-71
2022/03/05 10:26:08;;;;;;;14.07;5.03;;;;;;;;;;5043637;28;20028;-71
2022/03/05 10:28:34;;;;;;;9.93;4.83;;;;;;;;;;5045999;28;20021;-71
2022/03/05 10:31:07;;;;;;;12.03;5.00;;;;;;;;;;5042996;28;20104;-71
2022/03/05 10:33:33;;;;;;;20.53;6.37;;;;;;;;;;5036730;28;20044;-71
2022/03/05 10:36:00;;;;;;;11.90;4.10;;;;;;;;;;5025799;28;20102;-71
2022/03/05 10:38:41;;;;;;;9.07;4.47;;;;;;;;;;5026599;28;20037;-71
2022/03/05 10:41:06;;;;;;;14.43;4.72;;;;;;;;;;5055488;28;20109;-71
2022/03/05 10:43:32;;;;;;;13.10;5.17;;;;;;;;;;5050850;28;20108;-71
2022/03/05 10:45:58;;;;;;;10.87;4.33;;;;;;;;;;5045424;28;20032;-71
2022/03/05 10:48:27;;;;;;;12.37;4.83;;;;;;;;;;5042644;28;20043;-71
2022/03/05 10:51:19;;;;;;;12.27;4.20;;;;;;;;;;5045377;28;20025;-71
2022/03/05 10:53:45;;;;;;;13.00;4.57;;;;;;;;;;5041513;28;20029;-70
2022/03/05 10:56:20;;;;;;;10.20;4.43;;;;;;;;;;5055036;28;20013;-72
2022/03/05 10:58:56;;;;;;;11.77;4.63;;;;;;;;;;5048298;28;20366;-72
2022/03/05 11:01:21;;;;;;;14.97;6.23;;;;;;;;;;5050647;28;20023;-71
2022/03/05 11:03:47;;;;;;;8.80;3.97;;;;;;;;;;5046600;28;20115;-72
2022/03/05 11:06:13;;;;;;;10.00;4.40;;;;;;;;;;5048581;28;20035;-70
2022/03/05 11:08:38;;;;;;;10.37;4.30;;;;;;;;;;5052042;28;20044;-72
2022/03/05 11:11:04;;;;;;;8.57;4.07;;;;;;;;;;5052044;28;20074;-71
2022/03/05 11:13:29;;;;;;;12.40;5.37;;;;;;;;;;5044994;28;20021;-72
2022/03/05 11:15:54;;;;;;;12.23;4.47;;;;;;;;;;5054578;28;20024;-72
2022/03/05 11:18:19;;;;;;;13.30;5.20;;;;;;;;;;5048654;28;20033;-72
2022/03/05 11:20:47;;;;;;;14.07;5.90;;;;;;;;;;5047200;28;20033;-72
2022/03/05 11:23:13;;;;;;;9.47;3.97;;;;;;;;;;5046090;28;20132;-71
2022/03/05 11:25:40;;;;;;;9.93;4.17;;;;;;;;;;5045009;28;20039;-72
2022/03/05 11:28:07;;;;;;;14.70;5.30;;;;;;;;;;5047895;28;20033;-72
2022/03/05 11:30:40;;;;;;;11.13;4.63;;;;;;;;;;5048943;28;20016;-71
2022/03/05 11:33:09;;;;;;;12.03;4.50;;;;;;;;;;5049594;28;20055;-72
2022/03/05 11:35:34;;;;;;;13.83;5.37;;;;;;;;;;5054315;28;20397;-71
2022/03/05 11:37:59;;;;;;;12.50;5.00;;;;;;;;;;5055142;28;20017;-70
2022/03/05 11:40:29;;;;;;;35.77;12.77;;;;;;;;;;5052323;28;20584;-71
2022/03/05 11:43:13;;;;;;;15.87;6.33;;;;;;;;;;5041904;28;20047;-71
2022/03/05 11:45:45;;;;;;;17.73;7.70;;;;;;;;;;5058062;28;20013;-72
2022/03/05 11:48:24;;;;;;;40.00;6.60;;;;;;;;;;5043849;28;20021;-72
2022/03/05 11:50:53;;;;;;;9.37;3.87;;;;;;;;;;5044239;28;20019;-71
2022/03/05 11:53:18;;;;;;;20.47;9.33;;;;;;;;;;5041229;28;20105;-75
2022/03/05 11:55:45;;;;;;;19.77;8.60;;;;;;;;;;5050460;28;20091;-73
2022/03/05 11:58:13;;;;;;;16.93;5.80;;;;;;;;;;5053831;28;20124;-73
2022/03/05 12:00:39;;;;;;;18.77;9.13;;;;;;;;;;5050086;28;20029;-72
2022/03/05 12:03:05;;;;;;;14.20;5.77;;;;;;;;;;5053370;28;20029;-72
2022/03/05 12:05:41;;;;;;;13.27;5.40;;;;;;;;;;5049456;28;20043;-72
2022/03/05 12:08:21;;;;;;;19.23;8.97;;;;;;;;;;5051524;28;20704;-72
2022/03/05 12:11:05;;;;;;;29.70;14.20;;;;;;;;;;5046365;28;20019;-72
2022/03/05 12:13:30;;;;;;;14.57;6.10;;;;;;;;;;5041611;28;20473;-71
2022/03/05 12:15:56;;;;;;;14.80;6.13;;;;;;;;;;5043209;28;20028;-72
2022/03/05 12:18:22;;;;;;;26.37;13.23;;;;;;;;;;5035386;28;20021;-72
2022/03/05 12:20:47;;;;;;;14.73;5.70;;;;;;;;;;5034165;28;20018;-72
2022/03/05 12:23:17;;;;;;;11.93;4.83;;;;;;;;;;5036860;28;20858;-72
2022/03/05 12:25:44;;;;;;;12.03;5.87;;;;;;;;;;5041748;28;20028;-71
2022/03/05 12:28:32;;;;;;;43.60;17.20;;;;;;;;;;5040877;28;20478;-72
2022/03/05 12:30:58;;;;;;;12.57;5.30;;;;;;;;;;5055590;28;20385;-72
2022/03/05 12:33:24;;;;;;;13.93;4.90;;;;;;;;;;5054040;28;20031;-72
2022/03/05 12:35:50;;;;;;;14.73;5.73;;;;;;;;;;5052399;28;20508;-72
2022/03/05 12:38:19;;;;;;;13.23;5.00;;;;;;;;;;5051620;28;20093;-72
2022/03/05 12:40:44;;;;;;;11.50;4.20;;;;;;;;;;5055948;28;20028;-72
2022/03/05 12:43:09;;;;;;;12.43;5.63;;;;;;;;;;5054866;28;20028;-72
2022/03/05 12:45:37;;;;;;;19.97;6.70;;;;;;;;;;5046783;28;20116;-72
2022/03/05 12:48:15;;;;;;;16.10;4.30;;;;;;;;;;5045904;28;20033;-72
2022/03/05 12:50:45;;;;;;;20.53;6.50;;;;;;;;;;5051744;28;20512;-72
2022/03/05 12:53:10;;;;;;;30.63;9.90;;;;;;;;;;5050042;28;20141;-72
2022/03/05 12:55:35;;;;;;;26.13;9.47;;;;;;;;;;5041468;28;20393;-72
2022/03/05 12:58:06;;;;;;;15.20;5.33;;;;;;;;;;5054268;28;20477;-70
2022/03/05 13:00:32;;;;;;;13.38;4.68;;;;;;;;;;5058799;28;20123;-71
2022/03/05 13:02:57;;;;;;;11.33;4.23;;;;;;;;;;5056434;28;20096;-72
2022/03/05 13:05:22;;;;;;;13.97;5.27;;;;;;;;;;5045092;28;20017;-72
2022/03/05 13:07:48;;;;;;;13.80;4.47;;;;;;;;;;5053583;28;20021;-72
2022/03/05 13:10:13;;;;;;;12.03;4.43;;;;;;;;;;5051388;28;20028;-71
2022/03/05 13:12:39;;;;;;;14.43;4.90;;;;;;;;;;5045849;28;20025;-72
2022/03/05 13:15:05;;;;;;;10.50;4.87;;;;;;;;;;5050862;28;20020;-71
2022/03/05 13:17:30;;;;;;;13.27;4.60;;;;;;;;;;5055075;28;20044;-72
2022/03/05 13:20:04;;;;;;;14.30;5.13;;;;;;;;;;5050381;28;20617;-72
2022/03/05 13:22:30;;;;;;;15.07;5.50;;;;;;;;;;5056392;28;20028;-72
2022/03/05 13:24:55;;;;;;;11.63;3.97;;;;;;;;;;5043626;28;20078;-72
2022/03/05 13:27:24;;;;;;;25.23;5.17;;;;;;;;;;5050512;28;20033;-72
2022/03/05 13:29:51;;;;;;;12.43;4.10;;;;;;;;;;5052546;28;20048;-70
2022/03/05 13:32:16;;;;;;;19.60;4.43;;;;;;;;;;5050146;28;20659;-72
2022/03/05 13:34:41;;;;;;;12.27;4.23;;;;;;;;;;5056291;28;20017;-73
2022/03/05 13:37:07;;;;;;;12.77;5.20;;;;;;;;;;5055690;28;20059;-72
2022/03/05 13:39:33;;;;;;;12.70;4.37;;;;;;;;;;5047313;28;20021;-72
2022/03/05 13:41:58;;;;;;;13.20;4.87;;;;;;;;;;5056675;28;20016;-72
2022/03/05 13:44:34;;;;;;;14.47;4.23;;;;;;;;;;5050771;28;20043;-71
2022/03/05 13:47:00;;;;;;;13.60;4.87;;;;;;;;;;5049915;28;20107;-72
2022/03/05 13:49:26;;;;;;;9.67;4.57;;;;;;;;;;5042605;28;20191;-72
2022/03/05 13:51:56;;;;;;;12.07;4.47;;;;;;;;;;5041667;28;20028;-72
2022/03/05 13:54:33;;;;;;;11.77;5.00;;;;;;;;;;5046949;28;20041;-72
2022/03/05 13:56:58;;;;;;;13.17;5.17;;;;;;;;;;5057349;28;20024;-72
2022/03/05 13:59:35;;;;;;;12.27;4.40;;;;;;;;;;5051462;28;20240;-71
2022/03/05 14:02:00;;;;;;;12.47;4.57;;;;;;;;;;5052234;28;20025;-71
2022/03/05 14:04:25;;;;;;;10.93;4.10;;;;;;;;;;5050955;28;20029;-72
2022/03/05 14:06:58;;;;;;;10.63;3.97;;;;;;;;;;5049037;28;20036;-71
2022/03/05 14:09:29;;;;;;;15.07;5.30;;;;;;;;;;5034869;28;20053;-71
2022/03/05 14:12:00;;;;;;;15.35;4.72;;;;;;;;;;5032636;28;20032;-72
2022/03/05 14:14:44;;;;;;;11.98;4.53;;;;;;;;;;5050853;28;20017;-72
2022/03/05 14:17:21;;;;;;;57.87;7.13;;;;;;;;;;5053279;28;20381;-73
2022/03/05 14:19:46;;;;;;;11.57;4.57;;;;;;;;;;5046575;28;20036;-72
2022/03/05 14:22:12;;;;;;;25.13;6.27;;;;;;;;;;5057123;28;20028;-73
2022/03/05 14:24:43;;;;;;;11.37;4.17;;;;;;;;;;5055258;28;20028;-72
2022/03/05 14:27:10;;;;;;;17.57;5.03;;;;;;;;;;5058028;28;20650;-72
2022/03/05 14:29:35;;;;;;;15.73;4.53;;;;;;;;;;5054538;28;20156;-72
2022/03/05 14:32:00;;;;;;;11.77;4.40;;;;;;;;;;5047513;28;20243;-73